createdAt,value
2023-04-09T06:14:16.770Z,99132.38
2023-04-09T06:16:45.989Z,99138.97
2023-04-09T06:19:17.785Z,99131.88
2023-04-09T06:21:46.882Z,99142.84
2023-04-09T06:24:21.783Z,99148.31
2023-04-09T06:26:56.807Z,99146.53
2023-04-09T06:29:39.947Z,99144.88
2023-04-09T06:32:10.518Z,99150.69
2023-04-09T06:34:39.441Z,99150.50
2023-04-09T06:37:15.269Z,99151.91
2023-04-09T06:39:50.647Z,99143.19
2023-04-09T06:43:00.841Z,99154.84
2023-04-09T06:45:30.420Z,99164.22
2023-04-09T06:48:42.859Z,99156.00
2023-04-09T06:51:12.895Z,99158.22
2023-04-09T06:53:42.779Z,99159.22
2023-04-09T06:56:11.774Z,99153.59
2023-04-09T06:58:40.972Z,99169.66
2023-04-09T07:01:10.216Z,99166.13
2023-04-09T07:04:06.213Z,99170.19
2023-04-09T07:06:35.277Z,99169.84
2023-04-09T07:09:25.373Z,99173.03
2023-04-09T07:12:01.840Z,99183.13
2023-04-09T07:14:31.152Z,99174.75
2023-04-09T07:17:00.306Z,99177.59
2023-04-09T07:20:06.652Z,99164.34
2023-04-09T07:22:37.027Z,99175.53
2023-04-09T07:25:29.933Z,99174.31
2023-04-09T07:27:59.996Z,99176.06
2023-04-09T07:31:05.528Z,99181.28
2023-04-09T07:33:49.292Z,99177.81
2023-04-09T07:36:18.308Z,99176.66
2023-04-09T07:38:47.384Z,99169.97
2023-04-09T07:41:16.800Z,99171.63
2023-04-09T07:43:45.702Z,99177.44
2023-04-09T07:46:33.611Z,99183.34
2023-04-09T07:49:05.223Z,99177.66
2023-04-09T07:51:50.519Z,99175.75
2023-04-09T07:54:49.877Z,99168.00
2023-04-09T07:57:18.634Z,99173.78
2023-04-09T07:59:47.760Z,99174.75
2023-04-09T08:02:16.599Z,99177.22
2023-04-09T08:04:47.341Z,99169.84
2023-04-09T08:07:22.204Z,99166.53
2023-04-09T08:10:03.874Z,99170.34
2023-04-09T08:12:39.428Z,99174.53
2023-04-09T08:15:36.526Z,99178.13
2023-04-09T08:18:11.808Z,99178.91
2023-04-09T08:20:45.740Z,99181.22
2023-04-09T08:23:15.123Z,99188.47
2023-04-09T08:25:44.056Z,99176.88
2023-04-09T08:28:13.033Z,99185.31
2023-04-09T08:30:45.172Z,99180.53
2023-04-09T08:33:15.810Z,99169.84
2023-04-09T08:35:48.099Z,99175.28
2023-04-09T08:38:16.761Z,99178.97
2023-04-09T08:40:45.860Z,99174.34
2023-04-09T08:43:16.849Z,99176.75
2023-04-09T08:45:45.152Z,99175.03
2023-04-09T08:48:19.229Z,99183.72
2023-04-09T08:50:48.090Z,99173.78
2023-04-09T08:53:19.752Z,99174.69
2023-04-09T08:55:49.246Z,99176.91
2023-04-09T08:58:19.280Z,99171.94
2023-04-09T09:00:47.592Z,99173.56
2023-04-09T09:03:24.650Z,99166.88
2023-04-09T09:05:53.403Z,99162.66
2023-04-09T09:12:01.821Z,99159.72
2023-04-09T09:14:34.076Z,99164.34
2023-04-09T09:17:07.015Z,99149.16
2023-04-09T09:19:39.749Z,99159.84
2023-04-09T09:22:13.677Z,99161.28
2023-04-09T09:25:00.609Z,99152.53
2023-04-09T09:27:44.444Z,99158.97
2023-04-09T09:30:31.254Z,99156.41
2023-04-09T09:33:14.480Z,99146.41
2023-04-09T09:36:35.969Z,99144.56
2023-04-09T09:39:19.642Z,99145.69
2023-04-09T09:41:48.897Z,99138.97
2023-04-09T09:44:36.774Z,99140.97
2023-04-09T09:47:10.037Z,99128.13
2023-04-09T09:49:39.177Z,99120.00
2023-04-09T09:52:12.871Z,99127.94
2023-04-09T09:55:00.500Z,99134.28
2023-04-09T09:57:40.142Z,99129.19
2023-04-09T10:00:16.025Z,99127.25
2023-04-09T10:03:29.307Z,99130.06
2023-04-09T10:06:02.518Z,99117.44
2023-04-09T10:09:51.229Z,99121.59
2023-04-09T10:12:24.693Z,99125.19
2023-04-09T10:15:22.020Z,99116.53
2023-04-09T10:21:37.147Z,99104.56
2023-04-09T10:24:12.907Z,99106.53
2023-04-09T10:26:45.345Z,99107.69
2023-04-09T10:29:17.261Z,99104.94
2023-04-09T10:32:07.935Z,99103.50
2023-04-09T10:35:11.814Z,99095.91
2023-04-09T10:37:50.044Z,99097.19
2023-04-09T10:41:20.072Z,99101.53
2023-04-09T10:44:35.935Z,99103.31
2023-04-09T10:47:35.843Z,99103.50
2023-04-09T10:50:43.624Z,99101.09
2023-04-09T10:53:28.240Z,99099.13
2023-04-09T10:56:49.672Z,99101.13
2023-04-09T10:59:25.031Z,99101.75
2023-04-09T11:02:00.058Z,99091.50
2023-04-09T11:05:40.161Z,99087.16
2023-04-09T11:08:22.740Z,99086.09
2023-04-09T11:10:53.862Z,99083.03
2023-04-09T11:13:22.865Z,99066.66
2023-04-09T11:15:51.774Z,99091.03
2023-04-09T11:18:34.725Z,99086.69
2023-04-09T11:21:12.862Z,99080.06
2023-04-09T11:23:43.708Z,99078.69
2023-04-09T11:26:13.105Z,99078.31
2023-04-09T11:29:23.556Z,99078.41
2023-04-09T11:31:58.905Z,99073.59
2023-04-09T11:34:47.340Z,99076.81
2023-04-09T11:37:57.056Z,99074.88
2023-04-09T11:40:29.906Z,99080.44
2023-04-09T11:43:25.296Z,99074.88
2023-04-09T11:45:56.502Z,99071.59
2023-04-09T11:48:28.422Z,99066.09
2023-04-09T11:50:57.565Z,99064.13
2023-04-09T11:53:34.686Z,99059.38
2023-04-09T11:56:04.202Z,99054.97
2023-04-09T11:58:33.603Z,99056.47
2023-04-09T12:01:09.825Z,99064.88
2023-04-09T12:04:03.409Z,99058.72
2023-04-09T12:06:33.319Z,99059.25
2023-04-09T12:09:05.702Z,99054.06
2023-04-09T12:11:47.191Z,99055.50
2023-04-09T12:14:26.195Z,99044.00
2023-04-09T12:16:57.587Z,99049.56
2023-04-09T12:19:40.619Z,99046.00
2023-04-09T12:22:09.494Z,99039.25
2023-04-09T12:24:38.142Z,99040.19
2023-04-09T12:27:28.401Z,99044.47
2023-04-09T12:29:57.347Z,99035.50
2023-04-09T12:32:26.505Z,99035.13
2023-04-09T12:34:56.015Z,99024.50
2023-04-09T12:37:25.580Z,99015.34
2023-04-09T12:40:28.793Z,99031.16
2023-04-09T12:43:57.860Z,99014.91
2023-04-09T12:46:42.431Z,99019.03
2023-04-09T12:49:36.126Z,99021.44
2023-04-09T12:52:07.927Z,99022.84
2023-04-09T12:54:53.892Z,99024.53
2023-04-09T12:57:46.256Z,99012.97
2023-04-09T13:00:16.497Z,99011.34
2023-04-09T13:02:45.841Z,99010.13
2023-04-09T13:05:25.725Z,99006.94
2023-04-09T13:07:57.147Z,99008.25
2023-04-09T13:10:26.730Z,99016.03
2023-04-09T13:12:55.793Z,99012.25
2023-04-09T13:15:24.990Z,99010.63
2023-04-09T13:17:54.310Z,99011.53
2023-04-09T13:20:23.549Z,99004.00
2023-04-09T13:22:52.937Z,99006.38
2023-04-09T13:25:24.286Z,98990.31
2023-04-09T13:27:53.367Z,98997.22
2023-04-09T13:30:42.861Z,98995.91
2023-04-09T13:33:16.650Z,98991.19
2023-04-09T13:35:46.211Z,98982.53
2023-04-09T13:38:35.923Z,98975.13
2023-04-09T13:41:30.748Z,98987.91
2023-04-09T13:44:02.430Z,98975.88
2023-04-09T13:46:36.931Z,98976.56
2023-04-09T13:49:19.029Z,98963.94
2023-04-09T13:51:50.465Z,98964.28
2023-04-09T13:54:26.510Z,98972.25
2023-04-09T13:57:31.907Z,98965.19
2023-04-09T14:00:23.837Z,98971.09
2023-04-09T14:03:30.974Z,98956.88
2023-04-09T14:05:59.748Z,98951.41
2023-04-09T14:08:33.095Z,98943.16
2023-04-09T14:11:50.013Z,98940.94
2023-04-09T14:14:26.759Z,98938.16
2023-04-09T14:16:55.535Z,98930.44
2023-04-09T14:19:25.595Z,98945.53
2023-04-09T14:21:55.744Z,98942.22
2023-04-09T14:24:25.606Z,98942.47
2023-04-09T14:27:12.714Z,98927.03
2023-04-09T14:30:09.512Z,98918.38
2023-04-09T14:33:00.413Z,98928.09
2023-04-09T14:36:01.507Z,98934.19
2023-04-09T14:41:40.401Z,98940.75
2023-04-09T14:44:09.424Z,98932.22
2023-04-09T14:47:06.793Z,98934.44
2023-04-09T14:49:50.923Z,98928.19
2023-04-09T14:52:20.389Z,98936.13
2023-04-09T14:54:49.351Z,98924.97
2023-04-09T15:01:07.936Z,98933.50
2023-04-09T15:04:02.377Z,98921.59
2023-04-09T15:06:32.864Z,98918.53
2023-04-09T15:09:02.205Z,98926.38
2023-04-09T15:11:35.068Z,98927.13
2023-04-09T15:14:04.348Z,98914.03
2023-04-09T15:16:47.613Z,98925.56
2023-04-09T15:19:16.680Z,98912.41
2023-04-09T15:21:46.064Z,98910.66
2023-04-09T15:24:15.320Z,98906.50
2023-04-09T15:26:44.092Z,98899.66
2023-04-09T15:29:42.685Z,98910.03
2023-04-09T15:32:33.106Z,98903.25
2023-04-09T15:35:02.535Z,98918.63
2023-04-09T15:38:18.950Z,98915.19
2023-04-09T15:41:12.132Z,98911.44
2023-04-09T15:43:41.091Z,98905.69
2023-04-09T15:46:13.289Z,98907.13
2023-04-09T15:48:42.815Z,98911.53
2023-04-09T15:51:12.172Z,98916.16
2023-04-09T15:53:41.569Z,98910.78
2023-04-09T15:56:16.739Z,98907.91
2023-04-09T15:58:45.398Z,98913.50
2023-04-09T16:01:16.781Z,98906.41
2023-04-09T16:03:45.015Z,98896.84
2023-04-09T16:06:41.016Z,98900.31
2023-04-09T16:09:09.636Z,98895.69
2023-04-09T16:11:39.033Z,98883.88
2023-04-09T16:14:45.457Z,98894.38
2023-04-09T16:17:14.606Z,98877.88
2023-04-09T16:19:44.245Z,98882.03
2023-04-09T16:22:13.857Z,98888.78
2023-04-09T16:24:43.092Z,98891.00
2023-04-09T16:27:20.738Z,98892.50
2023-04-09T16:29:49.118Z,98889.78
2023-04-09T16:32:42.023Z,98899.84
2023-04-09T16:35:11.562Z,98902.38
2023-04-09T16:41:19.173Z,98901.13
2023-04-09T16:44:36.680Z,98890.84
2023-04-09T16:47:06.746Z,98876.34
2023-04-09T16:54:35.473Z,98905.81
2023-04-09T16:57:12.112Z,98907.94
2023-04-09T16:59:42.896Z,98901.19
2023-04-09T17:02:12.327Z,98901.19
2023-04-09T17:05:25.805Z,98908.34
2023-04-09T17:07:54.991Z,98906.38
2023-04-09T17:10:23.813Z,98904.00
2023-04-09T17:13:42.425Z,98908.38
2023-04-09T17:16:36.781Z,98909.97
2023-04-09T17:19:06.315Z,98910.00
2023-04-09T17:21:37.640Z,98915.56
2023-04-09T17:24:19.453Z,98906.00
2023-04-09T17:26:59.212Z,98911.88
2023-04-09T17:29:55.760Z,98912.28
2023-04-09T17:35:43.668Z,98905.84
2023-04-09T17:38:30.686Z,98913.91
2023-04-09T17:41:00.064Z,98921.38
2023-04-09T17:44:09.684Z,98918.38
2023-04-09T17:46:37.493Z,98913.59
2023-04-09T17:49:10.456Z,98915.25
2023-04-09T17:51:42.762Z,98924.72
2023-04-09T17:54:10.193Z,98928.28
2023-04-09T17:56:39.132Z,98928.19
2023-04-09T17:59:07.333Z,98928.19
2023-04-09T18:01:34.983Z,98926.56
2023-04-09T18:04:02.825Z,98928.53
2023-04-09T18:06:31.629Z,98940.31
2023-04-09T18:08:59.210Z,98928.94
2023-04-09T18:11:27.224Z,98931.66
2023-04-09T18:13:54.727Z,98941.00
2023-04-09T18:16:23.408Z,98944.78
2023-04-09T18:18:51.128Z,98940.31
2023-04-09T18:21:18.609Z,98950.19
2023-04-09T18:23:46.595Z,98954.69
2023-04-09T18:26:14.080Z,98949.78
2023-04-09T18:28:42.014Z,98959.25
2023-04-09T18:31:12.189Z,98967.28
2023-04-09T18:33:39.814Z,98967.09
2023-04-09T18:36:07.625Z,98968.88
2023-04-09T18:38:35.132Z,98972.78
2023-04-09T18:41:03.548Z,98976.66
2023-04-09T18:43:31.037Z,98971.88
2023-04-09T18:45:58.477Z,98976.53
2023-04-09T18:48:26.129Z,98978.03
2023-04-09T18:50:53.646Z,98990.19
2023-04-09T18:53:21.352Z,98993.00
2023-04-09T18:55:48.865Z,98987.75
2023-04-09T18:58:16.445Z,98990.81
2023-04-09T19:00:43.979Z,98989.47
2023-04-09T19:03:12.272Z,98995.75
2023-04-09T19:05:40.281Z,99001.06
2023-04-09T19:08:08.006Z,99004.47
2023-04-09T19:10:36.183Z,99003.75
2023-04-09T19:13:04.169Z,99009.09
2023-04-09T19:15:31.781Z,99012.50
2023-04-09T19:17:59.308Z,99007.19
2023-04-09T19:20:27.317Z,99005.38
2023-04-09T19:22:56.676Z,99006.66
2023-04-09T19:25:24.265Z,99013.31
2023-04-09T19:27:53.709Z,99016.13
2023-04-09T19:30:21.395Z,99005.94
2023-04-09T19:32:48.982Z,99003.53
2023-04-09T19:35:16.994Z,99011.06
2023-04-09T19:37:44.998Z,99015.38
2023-04-09T19:40:15.666Z,99015.75
2023-04-09T19:42:43.334Z,99019.81
2023-04-09T19:45:11.957Z,99012.06
2023-04-09T19:47:39.634Z,99013.91
2023-04-09T19:50:07.651Z,99017.13
2023-04-09T19:52:35.157Z,99015.47
2023-04-09T19:55:04.439Z,99017.13
2023-04-09T19:57:31.993Z,99014.84
2023-04-09T19:59:59.436Z,99010.31
2023-04-09T20:02:27.064Z,99009.88
2023-04-09T20:04:54.849Z,99009.78
2023-04-09T20:07:22.467Z,99017.94
2023-04-09T20:09:50.088Z,99012.53
2023-04-09T20:12:17.757Z,99017.38
2023-04-09T20:14:46.010Z,99025.88
2023-04-09T20:17:13.622Z,99015.53
2023-04-09T20:19:41.101Z,99022.25
2023-04-09T20:22:08.620Z,99007.22
2023-04-09T20:24:36.863Z,99013.81
2023-04-09T20:27:04.528Z,99010.63
2023-04-09T20:29:32.053Z,99014.94
2023-04-09T20:31:59.581Z,99003.97
2023-04-09T20:34:28.212Z,99008.50
2023-04-09T20:36:56.038Z,99007.09
2023-04-09T20:39:26.820Z,98999.63
2023-04-09T20:41:56.721Z,99007.16
2023-04-09T20:44:24.644Z,99002.31
2023-04-09T20:46:52.138Z,99000.88
2023-04-09T20:49:19.740Z,98994.84
2023-04-09T20:51:47.742Z,99002.78
2023-04-09T20:54:15.592Z,98999.06
2023-04-09T20:56:44.835Z,98990.56
2023-04-09T20:59:12.444Z,98998.28
2023-04-09T21:01:40.454Z,98996.53
2023-04-09T21:04:08.975Z,98992.00
2023-04-09T21:06:36.472Z,98995.84
2023-04-09T21:09:03.984Z,98995.09
2023-04-09T21:11:31.757Z,98991.47
2023-04-09T21:13:59.512Z,98991.03
2023-04-09T21:16:28.727Z,98985.19
2023-04-09T21:18:56.693Z,98981.25
2023-04-09T21:21:27.424Z,98986.97
2023-04-09T21:23:54.962Z,98985.09
2023-04-09T21:26:22.488Z,98993.25
2023-04-09T21:28:50.667Z,98995.72
2023-04-09T21:31:18.342Z,98988.69
2023-04-09T21:33:46.179Z,98994.34
2023-04-09T21:36:13.909Z,98992.31
2023-04-09T21:38:41.592Z,98986.38
2023-04-09T21:41:09.110Z,98978.94
2023-04-09T21:43:38.483Z,98994.22
2023-04-09T21:46:06.178Z,98997.81
2023-04-09T21:48:33.749Z,98987.16
2023-04-09T21:51:01.292Z,98990.41
2023-04-09T21:53:31.534Z,98996.63
2023-04-09T21:55:59.116Z,98994.34
2023-04-09T21:58:26.547Z,98996.25
2023-04-09T22:00:53.979Z,98995.72
2023-04-09T22:03:22.667Z,98988.78
2023-04-09T22:05:50.470Z,98986.53
2023-04-09T22:08:18.459Z,98995.22
2023-04-09T22:10:46.329Z,98998.41
2023-04-09T22:13:13.836Z,98996.25
2023-04-09T22:15:41.985Z,99004.81
2023-04-09T22:18:09.580Z,99003.94
2023-04-09T22:20:37.225Z,99008.22
2023-04-09T22:23:04.698Z,99002.41
2023-04-09T22:25:35.137Z,99008.38
2023-04-09T22:28:02.770Z,99005.28
2023-04-09T22:30:30.547Z,99011.53
2023-04-09T22:32:58.097Z,99010.16
2023-04-09T22:35:25.706Z,99015.06
2023-04-09T22:37:53.425Z,99001.09
2023-04-09T22:40:21.115Z,99001.16
2023-04-09T22:42:48.798Z,99000.34
2023-04-09T22:45:16.443Z,99009.38
2023-04-09T22:47:43.989Z,99008.59
2023-04-09T22:50:13.549Z,99001.59
2023-04-09T22:52:41.074Z,99000.06
2023-04-09T22:55:10.295Z,98994.06
2023-04-09T22:57:38.488Z,98997.47
2023-04-09T23:00:08.600Z,98995.19
2023-04-09T23:02:37.084Z,98993.56
2023-04-09T23:05:05.154Z,98997.31
2023-04-09T23:07:32.758Z,98991.72
2023-04-09T23:10:01.628Z,98996.84
2023-04-09T23:12:29.099Z,99004.69
2023-04-09T23:14:56.563Z,98998.97
2023-04-09T23:17:24.701Z,98993.56
2023-04-09T23:19:54.947Z,98991.00
2023-04-09T23:22:24.358Z,98994.44
2023-04-09T23:24:51.891Z,98993.91
2023-04-09T23:27:19.798Z,98995.44
2023-04-09T23:29:47.233Z,98991.47
2023-04-09T23:32:14.732Z,98990.53
2023-04-09T23:34:42.167Z,98995.84
2023-04-09T23:37:10.348Z,99004.47
2023-04-09T23:39:37.903Z,99004.50
2023-04-09T23:42:05.914Z,98997.28
2023-04-09T23:44:33.580Z,99003.25
2023-04-09T23:47:01.586Z,98996.84
2023-04-09T23:49:38.699Z,99002.47
2023-04-09T23:52:12.170Z,98999.53
2023-04-09T23:54:51.605Z,98996.06
2023-04-09T23:57:25.482Z,98995.19
2023-04-09T23:59:58.257Z,98992.69
